sensor_id;sensor_type;location;lat;lon;timestamp;pressure;altitude;pressure_sealevel;temperature
76583;BMP280;65462;52.148;7.940;2023-05-14T00:00:06;101133.75;;;14.72
76583;BMP280;65462;52.148;7.940;2023-05-14T00:02:32;101129.44;;;14.68
76583;BMP280;65462;52.148;7.940;2023-05-14T00:04:57;101133.22;;;14.67
76583;BMP280;65462;52.148;7.940;2023-05-14T00:07:23;101124.34;;;14.63
76583;BMP280;65462;52.148;7.940;2023-05-14T00:09:54;101127.03;;;14.63
76583;BMP280;65462;52.148;7.940;2023-05-14T00:12:19;101125.44;;;14.62
76583;BMP280;65462;52.148;7.940;2023-05-14T00:14:45;101127.69;;;14.60
76583;BMP280;65462;52.148;7.940;2023-05-14T00:17:10;101126.13;;;14.59
76583;BMP280;65462;52.148;7.940;2023-05-14T00:19:35;101124.56;;;14.58
76583;BMP280;65462;52.148;7.940;2023-05-14T00:22:00;101120.69;;;14.55
76583;BMP280;65462;52.148;7.940;2023-05-14T00:24:26;101120.59;;;14.52
76583;BMP280;65462;52.148;7.940;2023-05-14T00:26:51;101124.38;;;14.51
76583;BMP280;65462;52.148;7.940;2023-05-14T00:29:17;101112.84;;;14.47
76583;BMP280;65462;52.148;7.940;2023-05-14T00:31:42;101108.19;;;14.44
76583;BMP280;65462;52.148;7.940;2023-05-14T00:34:07;101108.09;;;14.40
76583;BMP280;65462;52.148;7.940;2023-05-14T00:36:32;101107.16;;;14.36
76583;BMP280;65462;52.148;7.940;2023-05-14T00:38:58;101106.41;;;14.36
76583;BMP280;65462;52.148;7.940;2023-05-14T00:41:23;101102.00;;;14.28
76583;BMP280;65462;52.148;7.940;2023-05-14T00:43:48;101108.19;;;14.32
76583;BMP280;65462;52.148;7.940;2023-05-14T00:46:14;101100.91;;;14.29
76583;BMP280;65462;52.148;7.940;2023-05-14T00:48:39;101109.50;;;14.26
76583;BMP280;65462;52.148;7.940;2023-05-14T00:51:05;101102.63;;;14.25
76583;BMP280;65462;52.148;7.940;2023-05-14T00:53:32;101112.06;;;14.22
76583;BMP280;65462;52.148;7.940;2023-05-14T00:55:57;101103.63;;;14.20
76583;BMP280;65462;52.148;7.940;2023-05-14T00:58:23;101104.66;;;14.16
76583;BMP280;65462;52.148;7.940;2023-05-14T01:00:49;101104.94;;;14.14
76583;BMP280;65462;52.148;7.940;2023-05-14T01:03:14;101101.88;;;14.12
76583;BMP280;65462;52.148;7.940;2023-05-14T01:10:59;101088.56;;;14.00
76583;BMP280;65462;52.148;7.940;2023-05-14T01:13:33;101097.66;;;13.99
76583;BMP280;65462;52.148;7.940;2023-05-14T01:16:01;101093.75;;;13.96
76583;BMP280;65462;52.148;7.940;2023-05-14T01:18:28;101094.41;;;13.93
76583;BMP280;65462;52.148;7.940;2023-05-14T01:20:54;101090.53;;;13.91
76583;BMP280;65462;52.148;7.940;2023-05-14T01:23:19;101094.63;;;13.88
76583;BMP280;65462;52.148;7.940;2023-05-14T01:25:45;101088.09;;;13.86
76583;BMP280;65462;52.148;7.940;2023-05-14T01:28:18;101096.72;;;13.83
76583;BMP280;65462;52.148;7.940;2023-05-14T01:31:01;101090.50;;;13.79
76583;BMP280;65462;52.148;7.940;2023-05-14T01:33:28;101084.75;;;13.77
76583;BMP280;65462;52.148;7.940;2023-05-14T01:35:55;101086.19;;;13.74
76583;BMP280;65462;52.148;7.940;2023-05-14T01:38:20;101075.44;;;13.71
76583;BMP280;65462;52.148;7.940;2023-05-14T01:40:47;101076.09;;;13.68
76583;BMP280;65462;52.148;7.940;2023-05-14T01:43:14;101074.06;;;13.65
76583;BMP280;65462;52.148;7.940;2023-05-14T01:45:40;101077.41;;;13.62
76583;BMP280;65462;52.148;7.940;2023-05-14T01:48:06;101077.06;;;13.63
76583;BMP280;65462;52.148;7.940;2023-05-14T01:50:31;101079.91;;;13.58
76583;BMP280;65462;52.148;7.940;2023-05-14T01:52:57;101079.50;;;13.56
76583;BMP280;65462;52.148;7.940;2023-05-14T01:55:23;101072.47;;;13.52
76583;BMP280;65462;52.148;7.940;2023-05-14T01:57:51;101080.03;;;13.50
76583;BMP280;65462;52.148;7.940;2023-05-14T02:00:17;101073.00;;;13.45
76583;BMP280;65462;52.148;7.940;2023-05-14T02:02:42;101067.63;;;13.42
76583;BMP280;65462;52.148;7.940;2023-05-14T02:05:09;101062.50;;;13.37
76583;BMP280;65462;52.148;7.940;2023-05-14T02:07:35;101057.06;;;13.33
76583;BMP280;65462;52.148;7.940;2023-05-14T02:10:00;101057.19;;;13.37
76583;BMP280;65462;52.148;7.940;2023-05-14T02:12:25;101060.50;;;13.34
76583;BMP280;65462;52.148;7.940;2023-05-14T02:14:51;101060.38;;;13.30
76583;BMP280;65462;52.148;7.940;2023-05-14T02:17:16;101054.63;;;13.28
76583;BMP280;65462;52.148;7.940;2023-05-14T02:19:42;101052.16;;;13.23
76583;BMP280;65462;52.148;7.940;2023-05-14T02:22:08;101054.34;;;13.21
76583;BMP280;65462;52.148;7.940;2023-05-14T02:24:33;101051.59;;;13.17
76583;BMP280;65462;52.148;7.940;2023-05-14T02:26:59;101048.94;;;13.17
76583;BMP280;65462;52.148;7.940;2023-05-14T02:29:25;101051.03;;;13.12
76583;BMP280;65462;52.148;7.940;2023-05-14T02:31:51;101043.69;;;13.09
76583;BMP280;65462;52.148;7.940;2023-05-14T02:34:16;101044.78;;;13.08
76583;BMP280;65462;52.148;7.940;2023-05-14T02:36:41;101039.47;;;13.08
76583;BMP280;65462;52.148;7.940;2023-05-14T02:39:06;101043.59;;;13.05
76583;BMP280;65462;52.148;7.940;2023-05-14T02:41:32;101041.22;;;13.04
76583;BMP280;65462;52.148;7.940;2023-05-14T02:43:57;101043.00;;;13.00
76583;BMP280;65462;52.148;7.940;2023-05-14T02:46:22;101039.44;;;12.96
76583;BMP280;65462;52.148;7.940;2023-05-14T02:48:48;101039.72;;;12.94
76583;BMP280;65462;52.148;7.940;2023-05-14T02:51:13;101038.94;;;12.94
76583;BMP280;65462;52.148;7.940;2023-05-14T02:53:38;101034.75;;;12.93
76583;BMP280;65462;52.148;7.940;2023-05-14T02:56:04;101029.00;;;12.91
76583;BMP280;65462;52.148;7.940;2023-05-14T02:58:29;101031.22;;;12.89
76583;BMP280;65462;52.148;7.940;2023-05-14T03:00:55;101034.16;;;12.87
76583;BMP280;65462;52.148;7.940;2023-05-14T03:03:20;101020.03;;;12.83
76583;BMP280;65462;52.148;7.940;2023-05-14T03:05:46;101023.91;;;12.86
76583;BMP280;65462;52.148;7.940;2023-05-14T03:08:11;101025.00;;;12.85
76583;BMP280;65462;52.148;7.940;2023-05-14T03:10:36;101018.91;;;12.84
76583;BMP280;65462;52.148;7.940;2023-05-14T03:13:02;101031.41;;;12.84
76583;BMP280;65462;52.148;7.940;2023-05-14T03:15:27;101017.69;;;12.82
76583;BMP280;65462;52.148;7.940;2023-05-14T03:17:53;101018.34;;;12.79
76583;BMP280;65462;52.148;7.940;2023-05-14T03:20:18;101022.09;;;12.78
76583;BMP280;65462;52.148;7.940;2023-05-14T03:22:43;101042.56;;;12.77
76583;BMP280;65462;52.148;7.940;2023-05-14T03:25:09;101028.03;;;12.75
76583;BMP280;65462;52.148;7.940;2023-05-14T03:27:34;101031.00;;;12.73
76583;BMP280;65462;52.148;7.940;2023-05-14T03:30:00;101032.44;;;12.71
76583;BMP280;65462;52.148;7.940;2023-05-14T03:32:25;101022.47;;;12.68
76583;BMP280;65462;52.148;7.940;2023-05-14T03:34:50;101017.81;;;12.65
76583;BMP280;65462;52.148;7.940;2023-05-14T03:37:16;101027.97;;;12.63
76583;BMP280;65462;52.148;7.940;2023-05-14T03:39:41;101029.72;;;12.59
76583;BMP280;65462;52.148;7.940;2023-05-14T03:42:06;101024.41;;;12.59
76583;BMP280;65462;52.148;7.940;2023-05-14T03:44:32;101019.72;;;12.56
76583;BMP280;65462;52.148;7.940;2023-05-14T03:46:57;101023.50;;;12.55
76583;BMP280;65462;52.148;7.940;2023-05-14T03:49:22;101031.63;;;12.49
76583;BMP280;65462;52.148;7.940;2023-05-14T03:51:47;101033.81;;;12.47
76583;BMP280;65462;52.148;7.940;2023-05-14T03:54:13;101032.25;;;12.46
76583;BMP280;65462;52.148;7.940;2023-05-14T03:56:38;101030.72;;;12.45
76583;BMP280;65462;52.148;7.940;2023-05-14T03:59:03;101035.28;;;12.45
76583;BMP280;65462;52.148;7.940;2023-05-14T04:01:28;101031.34;;;12.42
76583;BMP280;65462;52.148;7.940;2023-05-14T04:03:54;101026.06;;;12.42
76583;BMP280;65462;52.148;7.940;2023-05-14T04:06:19;101039.63;;;12.41
76583;BMP280;65462;52.148;7.940;2023-05-14T04:08:44;101041.50;;;12.40
76583;BMP280;65462;52.148;7.940;2023-05-14T04:11:09;101039.16;;;12.39
76583;BMP280;65462;52.148;7.940;2023-05-14T04:13:35;101036.06;;;12.37
76583;BMP280;65462;52.148;7.940;2023-05-14T04:16:00;101036.06;;;12.37
76583;BMP280;65462;52.148;7.940;2023-05-14T04:18:25;101036.06;;;12.37
76583;BMP280;65462;52.148;7.940;2023-05-14T04:20:51;101037.94;;;12.36
76583;BMP280;65462;52.148;7.940;2023-05-14T04:23:16;101027.81;;;12.38
76583;BMP280;65462;52.148;7.940;2023-05-14T04:25:41;101025.16;;;12.38
76583;BMP280;65462;52.148;7.940;2023-05-14T04:28:06;101022.53;;;12.38
76583;BMP280;65462;52.148;7.940;2023-05-14T04:30:32;101024.03;;;12.39
76583;BMP280;65462;52.148;7.940;2023-05-14T04:32:57;101016.88;;;12.40
76583;BMP280;65462;52.148;7.940;2023-05-14T04:35:23;101016.56;;;12.41
76583;BMP280;65462;52.148;7.940;2023-05-14T04:37:48;101018.09;;;12.42
76583;BMP280;65462;52.148;7.940;2023-05-14T04:40:14;101022.78;;;12.45
76583;BMP280;65462;52.148;7.940;2023-05-14T04:42:41;101017.91;;;12.47
76583;BMP280;65462;52.148;7.940;2023-05-14T04:45:06;101030.84;;;12.49
76583;BMP280;65462;52.148;7.940;2023-05-14T04:47:33;101017.91;;;12.47
76583;BMP280;65462;52.148;7.940;2023-05-14T04:49:58;101024.59;;;12.54
76583;BMP280;65462;52.148;7.940;2023-05-14T04:52:24;101028.81;;;12.55
76583;BMP280;65462;52.148;7.940;2023-05-14T04:54:50;101027.38;;;12.57
76583;BMP280;65462;52.148;7.940;2023-05-14T04:57:15;101025.94;;;12.60
76583;BMP280;65462;52.148;7.940;2023-05-14T04:59:40;101031.06;;;12.65
76583;BMP280;65462;52.148;7.940;2023-05-14T05:02:06;101028.41;;;12.65
76583;BMP280;65462;52.148;7.940;2023-05-14T05:04:31;101030.44;;;12.68
76583;BMP280;65462;52.148;7.940;2023-05-14T05:06:56;101034.63;;;12.69
76583;BMP280;65462;52.148;7.940;2023-05-14T05:09:22;101024.50;;;12.71
76583;BMP280;65462;52.148;7.940;2023-05-14T05:11:47;101030.25;;;12.73
76583;BMP280;65462;52.148;7.940;2023-05-14T05:14:13;101024.94;;;12.73
76583;BMP280;65462;52.148;7.940;2023-05-14T05:16:38;101031.94;;;12.77
76583;BMP280;65462;52.148;7.940;2023-05-14T05:19:03;101036.47;;;12.77
76583;BMP280;65462;52.148;7.940;2023-05-14T05:21:29;101026.16;;;12.75
76583;BMP280;65462;52.148;7.940;2023-05-14T05:23:54;101028.81;;;12.75
76583;BMP280;65462;52.148;7.940;2023-05-14T05:26:20;101032.56;;;12.74
76583;BMP280;65462;52.148;7.940;2023-05-14T05:28:46;101032.25;;;12.76
76583;BMP280;65462;52.148;7.940;2023-05-14T05:31:11;101038.00;;;12.78
76583;BMP280;65462;52.148;7.940;2023-05-14T05:33:37;101043.75;;;12.80
76583;BMP280;65462;52.148;7.940;2023-05-14T05:36:03;101041.88;;;12.80
76583;BMP280;65462;52.148;7.940;2023-05-14T05:38:28;101041.09;;;12.80
76583;BMP280;65462;52.148;7.940;2023-05-14T05:40:53;101039.97;;;12.81
76583;BMP280;65462;52.148;7.940;2023-05-14T05:43:19;101046.56;;;12.83
76583;BMP280;65462;52.148;7.940;2023-05-14T05:45:44;101040.78;;;12.81
76583;BMP280;65462;52.148;7.940;2023-05-14T05:48:10;101042.03;;;12.84
76583;BMP280;65462;52.148;7.940;2023-05-14T05:50:35;101048.88;;;12.85
76583;BMP280;65462;52.148;7.940;2023-05-14T05:53:01;101046.34;;;12.88
76583;BMP280;65462;52.148;7.940;2023-05-14T05:55:27;101041.97;;;12.92
76583;BMP280;65462;52.148;7.940;2023-05-14T05:57:53;101043.31;;;12.98
76583;BMP280;65462;52.148;7.940;2023-05-14T06:00:18;101042.34;;;13.03
76583;BMP280;65462;52.148;7.940;2023-05-14T06:02:44;101039.19;;;13.09
76583;BMP280;65462;52.148;7.940;2023-05-14T06:05:10;101043.97;;;13.16
76583;BMP280;65462;52.148;7.940;2023-05-14T06:07:35;101043.09;;;13.24
76583;BMP280;65462;52.148;7.940;2023-05-14T06:10:01;101051.44;;;13.35
76583;BMP280;65462;52.148;7.940;2023-05-14T06:12:26;101045.72;;;13.45
76583;BMP280;65462;52.148;7.940;2023-05-14T06:14:53;101037.66;;;13.53
76583;BMP280;65462;52.148;7.940;2023-05-14T06:17:19;101055.06;;;13.63
76583;BMP280;65462;52.148;7.940;2023-05-14T06:19:45;101043.56;;;13.71
76583;BMP280;65462;52.148;7.940;2023-05-14T06:22:10;101056.41;;;13.81
76583;BMP280;65462;52.148;7.940;2023-05-14T06:24:35;101050.22;;;13.89
76583;BMP280;65462;52.148;7.940;2023-05-14T06:27:01;101046.69;;;13.97
76583;BMP280;65462;52.148;7.940;2023-05-14T06:29:26;101054.69;;;14.09
76583;BMP280;65462;52.148;7.940;2023-05-14T06:31:51;101051.25;;;14.21
76583;BMP280;65462;52.148;7.940;2023-05-14T06:34:17;101054.22;;;14.31
76583;BMP280;65462;52.148;7.940;2023-05-14T06:36:43;101059.88;;;14.42
76583;BMP280;65462;52.148;7.940;2023-05-14T06:39:08;101060.63;;;14.54
76583;BMP280;65462;52.148;7.940;2023-05-14T06:41:33;101057.59;;;14.68
76583;BMP280;65462;52.148;7.940;2023-05-14T06:43:59;101058.34;;;14.80
76583;BMP280;65462;52.148;7.940;2023-05-14T06:46:24;101054.19;;;14.95
76583;BMP280;65462;52.148;7.940;2023-05-14T06:48:50;101055.38;;;15.10
76583;BMP280;65462;52.148;7.940;2023-05-14T06:51:15;101053.53;;;15.26
76583;BMP280;65462;52.148;7.940;2023-05-14T06:53:40;101054.00;;;15.43
76583;BMP280;65462;52.148;7.940;2023-05-14T06:56:06;101057.44;;;15.59
76583;BMP280;65462;52.148;7.940;2023-05-14T06:58:31;101060.56;;;15.77
76583;BMP280;65462;52.148;7.940;2023-05-14T07:00:57;101055.25;;;15.93
76583;BMP280;65462;52.148;7.940;2023-05-14T07:03:22;101052.63;;;16.12
76583;BMP280;65462;52.148;7.940;2023-05-14T07:05:48;101043.13;;;16.30
76583;BMP280;65462;52.148;7.940;2023-05-14T07:08:13;101053.47;;;16.50
76583;BMP280;65462;52.148;7.940;2023-05-14T07:10:38;101050.88;;;16.73
76583;BMP280;65462;52.148;7.940;2023-05-14T07:13:04;101040.97;;;16.93
76583;BMP280;65462;52.148;7.940;2023-05-14T07:15:29;101041.41;;;17.17
76583;BMP280;65462;52.148;7.940;2023-05-14T07:17:55;101039.53;;;17.40
76583;BMP280;65462;52.148;7.940;2023-05-14T07:20:20;101045.97;;;17.62
76583;BMP280;65462;52.148;7.940;2023-05-14T07:22:48;101035.25;;;17.85
76583;BMP280;65462;52.148;7.940;2023-05-14T07:25:13;101039.78;;;18.07
76583;BMP280;65462;52.148;7.940;2023-05-14T07:27:38;101033.19;;;18.27
76583;BMP280;65462;52.148;7.940;2023-05-14T07:30:04;101032.59;;;18.44
76583;BMP280;65462;52.148;7.940;2023-05-14T07:32:30;101030.91;;;18.62
76583;BMP280;65462;52.148;7.940;2023-05-14T07:34:55;101024.63;;;18.81
76583;BMP280;65462;52.148;7.940;2023-05-14T07:37:20;101039.66;;;18.96
76583;BMP280;65462;52.148;7.940;2023-05-14T07:39:46;101031.44;;;19.11
76583;BMP280;65462;52.148;7.940;2023-05-14T07:42:12;101028.88;;;19.25
76583;BMP280;65462;52.148;7.940;2023-05-14T07:44:37;101033.16;;;19.40
76583;BMP280;65462;52.148;7.940;2023-05-14T07:47:03;101031.78;;;19.57
76583;BMP280;65462;52.148;7.940;2023-05-14T07:49:34;101028.47;;;19.74
76583;BMP280;65462;52.148;7.940;2023-05-14T07:51:59;101030.44;;;19.88
76583;BMP280;65462;52.148;7.940;2023-05-14T07:54:25;101030.50;;;20.02
76583;BMP280;65462;52.148;7.940;2023-05-14T07:56:50;101027.13;;;20.12
76583;BMP280;65462;52.148;7.940;2023-05-14T07:59:16;101036.78;;;20.27
76583;BMP280;65462;52.148;7.940;2023-05-14T08:01:41;101029.13;;;20.36
76583;BMP280;65462;52.148;7.940;2023-05-14T08:04:06;101026.50;;;20.50
76583;BMP280;65462;52.148;7.940;2023-05-14T08:06:32;101023.06;;;20.64
76583;BMP280;65462;52.148;7.940;2023-05-14T08:08:58;101020.78;;;20.76
76583;BMP280;65462;52.148;7.940;2023-05-14T08:11:23;101021.94;;;20.89
76583;BMP280;65462;52.148;7.940;2023-05-14T08:13:48;101024.66;;;21.03
76583;BMP280;65462;52.148;7.940;2023-05-14T08:16:14;101021.19;;;21.17
76583;BMP280;65462;52.148;7.940;2023-05-14T08:18:39;101018.50;;;21.31
76583;BMP280;65462;52.148;7.940;2023-05-14T08:21:05;101015.44;;;21.43
76583;BMP280;65462;52.148;7.940;2023-05-14T08:23:30;101017.28;;;21.53
76583;BMP280;65462;52.148;7.940;2023-05-14T08:25:55;101023.03;;;21.66
76583;BMP280;65462;52.148;7.940;2023-05-14T08:28:21;101028.38;;;21.76
76583;BMP280;65462;52.148;7.940;2023-05-14T08:30:46;101023.34;;;21.85
76583;BMP280;65462;52.148;7.940;2023-05-14T08:33:11;101023.69;;;21.98
76583;BMP280;65462;52.148;7.940;2023-05-14T08:35:43;101017.47;;;22.11
76583;BMP280;65462;52.148;7.940;2023-05-14T08:38:08;101022.06;;;22.25
76583;BMP280;65462;52.148;7.940;2023-05-14T08:40:39;101022.00;;;22.35
76583;BMP280;65462;52.148;7.940;2023-05-14T08:43:05;101023.09;;;22.45
76583;BMP280;65462;52.148;7.940;2023-05-14T08:45:38;101019.16;;;22.56
76583;BMP280;65462;52.148;7.940;2023-05-14T08:48:06;101017.94;;;22.68
76583;BMP280;65462;52.148;7.940;2023-05-14T08:50:35;101003.19;;;22.80
76583;BMP280;65462;52.148;7.940;2023-05-14T08:53:01;101011.59;;;22.92
76583;BMP280;65462;52.148;7.940;2023-05-14T08:55:32;101002.97;;;23.04
76583;BMP280;65462;52.148;7.940;2023-05-14T08:57:58;101006.00;;;23.13
76583;BMP280;65462;52.148;7.940;2023-05-14T09:00:23;100998.19;;;23.22
76583;BMP280;65462;52.148;7.940;2023-05-14T09:02:51;101011.22;;;23.31
76583;BMP280;65462;52.148;7.940;2023-05-14T09:05:17;100993.03;;;23.38
76583;BMP280;65462;52.148;7.940;2023-05-14T09:07:43;100993.72;;;23.42
76583;BMP280;65462;52.148;7.940;2023-05-14T09:10:10;101000.59;;;23.50
76583;BMP280;65462;52.148;7.940;2023-05-14T09:12:35;100993.97;;;23.55
76583;BMP280;65462;52.148;7.940;2023-05-14T09:15:00;100998.09;;;23.66
76583;BMP280;65462;52.148;7.940;2023-05-14T09:17:26;100998.41;;;23.72
76583;BMP280;65462;52.148;7.940;2023-05-14T09:19:53;100996.78;;;23.78
76583;BMP280;65462;52.148;7.940;2023-05-14T09:22:19;100994.44;;;23.80
76583;BMP280;65462;52.148;7.940;2023-05-14T09:24:45;100998.28;;;23.83
76583;BMP280;65462;52.148;7.940;2023-05-14T09:27:19;100987.47;;;23.83
76583;BMP280;65462;52.148;7.940;2023-05-14T09:29:46;100992.47;;;23.84
76583;BMP280;65462;52.148;7.940;2023-05-14T09:32:11;100991.28;;;23.85
76583;BMP280;65462;52.148;7.940;2023-05-14T09:34:37;100982.81;;;23.87
76583;BMP280;65462;52.148;7.940;2023-05-14T09:37:05;100983.56;;;23.87
76583;BMP280;65462;52.148;7.940;2023-05-14T09:39:32;100985.41;;;23.94
76583;BMP280;65462;52.148;7.940;2023-05-14T09:41:57;100981.91;;;23.97
76583;BMP280;65462;52.148;7.940;2023-05-14T09:44:23;100985.66;;;24.03
76583;BMP280;65462;52.148;7.940;2023-05-14T09:46:49;100980.91;;;24.10
76583;BMP280;65462;52.148;7.940;2023-05-14T09:49:15;100983.94;;;24.16
76583;BMP280;65462;52.148;7.940;2023-05-14T09:51:40;100975.81;;;24.16
76583;BMP280;65462;52.148;7.940;2023-05-14T09:54:06;100976.59;;;24.16
76583;BMP280;65462;52.148;7.940;2023-05-14T09:56:32;100972.31;;;24.19
76583;BMP280;65462;52.148;7.940;2023-05-14T09:58:58;100979.94;;;24.24
76583;BMP280;65462;52.148;7.940;2023-05-14T10:01:23;100974.50;;;24.27
76583;BMP280;65462;52.148;7.940;2023-05-14T10:03:49;100966.34;;;24.31
76583;BMP280;65462;52.148;7.940;2023-05-14T10:06:18;100967.50;;;24.30
76583;BMP280;65462;52.148;7.940;2023-05-14T10:08:45;100958.28;;;24.27
76583;BMP280;65462;52.148;7.940;2023-05-14T10:11:14;100956.34;;;24.28
76583;BMP280;65462;52.148;7.940;2023-05-14T10:16:27;100960.31;;;24.20
76583;BMP280;65462;52.148;7.940;2023-05-14T10:18:55;100957.59;;;24.20
76583;BMP280;65462;52.148;7.940;2023-05-14T10:21:25;100963.00;;;24.20
76583;BMP280;65462;52.148;7.940;2023-05-14T10:23:54;100950.72;;;24.19
76583;BMP280;65462;52.148;7.940;2023-05-14T10:26:20;100952.28;;;24.16
76583;BMP280;65462;52.148;7.940;2023-05-14T10:28:46;100953.78;;;24.17
76583;BMP280;65462;52.148;7.940;2023-05-14T10:31:11;100958.81;;;24.19
76583;BMP280;65462;52.148;7.940;2023-05-14T10:33:47;100952.91;;;24.24
76583;BMP280;65462;52.148;7.940;2023-05-14T10:36:14;100949.38;;;24.27
76583;BMP280;65462;52.148;7.940;2023-05-14T10:38:40;100937.75;;;24.30
76583;BMP280;65462;52.148;7.940;2023-05-14T10:41:13;100936.53;;;24.34
76583;BMP280;65462;52.148;7.940;2023-05-14T10:43:46;100932.25;;;24.37
76583;BMP280;65462;52.148;7.940;2023-05-14T10:46:12;100933.78;;;24.38
76583;BMP280;65462;52.148;7.940;2023-05-14T10:48:40;100927.13;;;24.42
76583;BMP280;65462;52.148;7.940;2023-05-14T10:51:06;100930.00;;;24.55
76583;BMP280;65462;52.148;7.940;2023-05-14T10:53:37;100924.47;;;24.62
76583;BMP280;65462;52.148;7.940;2023-05-14T10:56:05;100921.34;;;24.67
76583;BMP280;65462;52.148;7.940;2023-05-14T10:58:34;100921.59;;;24.72
76583;BMP280;65462;52.148;7.940;2023-05-14T11:01:00;100920.44;;;24.73
76583;BMP280;65462;52.148;7.940;2023-05-14T11:03:29;100914.59;;;24.75
76583;BMP280;65462;52.148;7.940;2023-05-14T11:05:55;100913.09;;;24.74
76583;BMP280;65462;52.148;7.940;2023-05-14T11:08:21;100916.44;;;24.78
76583;BMP280;65462;52.148;7.940;2023-05-14T11:10:47;100910.66;;;24.79
76583;BMP280;65462;52.148;7.940;2023-05-14T11:13:13;100913.63;;;24.85
76583;BMP280;65462;52.148;7.940;2023-05-14T11:15:39;100909.63;;;24.93
76583;BMP280;65462;52.148;7.940;2023-05-14T11:18:11;100908.63;;;25.03
76583;BMP280;65462;52.148;7.940;2023-05-14T11:20:36;100910.06;;;25.11
76583;BMP280;65462;52.148;7.940;2023-05-14T11:23:02;100904.13;;;25.16
76583;BMP280;65462;52.148;7.940;2023-05-14T11:25:27;100901.78;;;25.18
76583;BMP280;65462;52.148;7.940;2023-05-14T11:27:53;100901.03;;;25.18
76583;BMP280;65462;52.148;7.940;2023-05-14T11:30:22;100902.59;;;25.15
76583;BMP280;65462;52.148;7.940;2023-05-14T11:32:48;100893.81;;;25.11
76583;BMP280;65462;52.148;7.940;2023-05-14T11:35:15;100894.31;;;25.06
76583;BMP280;65462;52.148;7.940;2023-05-14T11:37:40;100895.09;;;25.03
76583;BMP280;65462;52.148;7.940;2023-05-14T11:40:08;100893.59;;;25.02
76583;BMP280;65462;52.148;7.940;2023-05-14T11:42:35;100883.91;;;25.04
76583;BMP280;65462;52.148;7.940;2023-05-14T11:45:00;100886.53;;;25.08
76583;BMP280;65462;52.148;7.940;2023-05-14T11:47:28;100885.34;;;25.09
76583;BMP280;65462;52.148;7.940;2023-05-14T11:49:53;100873.75;;;25.08
76583;BMP280;65462;52.148;7.940;2023-05-14T11:52:19;100872.91;;;25.11
76583;BMP280;65462;52.148;7.940;2023-05-14T11:54:46;100869.03;;;25.13
76583;BMP280;65462;52.148;7.940;2023-05-14T11:57:17;100866.41;;;25.09
76583;BMP280;65462;52.148;7.940;2023-05-14T11:59:42;100867.97;;;25.06
76583;BMP280;65462;52.148;7.940;2023-05-14T12:02:12;100873.41;;;25.06
76583;BMP280;65462;52.148;7.940;2023-05-14T12:04:39;100861.47;;;25.04
76583;BMP280;65462;52.148;7.940;2023-05-14T12:07:12;100866.53;;;25.02
76583;BMP280;65462;52.148;7.940;2023-05-14T12:09:42;100853.44;;;25.00
76583;BMP280;65462;52.148;7.940;2023-05-14T12:12:13;100858.06;;;25.00
76583;BMP280;65462;52.148;7.940;2023-05-14T12:14:40;100860.78;;;25.00
76583;BMP280;65462;52.148;7.940;2023-05-14T12:17:19;100856.56;;;24.99
76583;BMP280;65462;52.148;7.940;2023-05-14T12:19:46;100854.69;;;24.96
76583;BMP280;65462;52.148;7.940;2023-05-14T12:22:18;100854.34;;;24.94
76583;BMP280;65462;52.148;7.940;2023-05-14T12:24:52;100843.16;;;24.92
76583;BMP280;65462;52.148;7.940;2023-05-14T12:27:21;100846.69;;;24.89
76583;BMP280;65462;52.148;7.940;2023-05-14T12:29:46;100842.13;;;24.86
76583;BMP280;65462;52.148;7.940;2023-05-14T12:32:11;100836.31;;;24.87
76583;BMP280;65462;52.148;7.940;2023-05-14T12:34:38;100842.84;;;24.90
76583;BMP280;65462;52.148;7.940;2023-05-14T12:37:04;100839.28;;;24.93
76583;BMP280;65462;52.148;7.940;2023-05-14T12:39:32;100844.19;;;24.98
76583;BMP280;65462;52.148;7.940;2023-05-14T12:41:57;100838.78;;;24.98
76583;BMP280;65462;52.148;7.940;2023-05-14T12:44:22;100843.44;;;24.97
76583;BMP280;65462;52.148;7.940;2023-05-14T12:46:48;100836.84;;;24.98
76583;BMP280;65462;52.148;7.940;2023-05-14T12:49:13;100827.56;;;24.99
76583;BMP280;65462;52.148;7.940;2023-05-14T12:51:38;100815.53;;;25.00
76583;BMP280;65462;52.148;7.940;2023-05-14T12:54:04;100820.03;;;25.07
76583;BMP280;65462;52.148;7.940;2023-05-14T12:56:29;100822.59;;;25.14
76583;BMP280;65462;52.148;7.940;2023-05-14T12:58:56;100814.34;;;25.21
76583;BMP280;65462;52.148;7.940;2023-05-14T13:01:22;100818.75;;;25.31
76583;BMP280;65462;52.148;7.940;2023-05-14T13:03:48;100813.28;;;25.35
76583;BMP280;65462;52.148;7.940;2023-05-14T13:06:13;100810.56;;;25.35
76583;BMP280;65462;52.148;7.940;2023-05-14T13:08:38;100810.19;;;25.33
76583;BMP280;65462;52.148;7.940;2023-05-14T13:11:04;100811.88;;;25.27
76583;BMP280;65462;52.148;7.940;2023-05-14T13:13:29;100811.56;;;25.25
76583;BMP280;65462;52.148;7.940;2023-05-14T13:15:54;100804.28;;;25.22
76583;BMP280;65462;52.148;7.940;2023-05-14T13:18:20;100797.72;;;25.19
76583;BMP280;65462;52.148;7.940;2023-05-14T13:20:45;100796.63;;;25.17
76583;BMP280;65462;52.148;7.940;2023-05-14T13:23:11;100795.00;;;25.19
76583;BMP280;65462;52.148;7.940;2023-05-14T13:25:37;100791.56;;;25.19
76583;BMP280;65462;52.148;7.940;2023-05-14T13:28:02;100789.13;;;25.24
76583;BMP280;65462;52.148;7.940;2023-05-14T13:30:28;100782.03;;;25.30
76583;BMP280;65462;52.148;7.940;2023-05-14T13:32:53;100780.31;;;25.36
76583;BMP280;65462;52.148;7.940;2023-05-14T13:35:19;100782.66;;;25.38
76583;BMP280;65462;52.148;7.940;2023-05-14T13:37:46;100764.16;;;25.33
76583;BMP280;65462;52.148;7.940;2023-05-14T13:40:11;100783.19;;;25.45
76583;BMP280;65462;52.148;7.940;2023-05-14T13:42:37;100779.78;;;25.45
76583;BMP280;65462;52.148;7.940;2023-05-14T13:45:04;100779.47;;;25.39
76583;BMP280;65462;52.148;7.940;2023-05-14T13:47:29;100777.38;;;25.31
76583;BMP280;65462;52.148;7.940;2023-05-14T13:49:55;100776.00;;;25.23
76583;BMP280;65462;52.148;7.940;2023-05-14T13:52:23;100777.38;;;25.15
76583;BMP280;65462;52.148;7.940;2023-05-14T13:54:49;100768.97;;;25.09
76583;BMP280;65462;52.148;7.940;2023-05-14T13:57:14;100763.38;;;25.00